Nearby METAR Reports

 

KNFG - Camp Pendleton, California, USA
Distance from station: WNW 5mi, 8km
Updated: Wed, 23-Aug-2017 9:55am PDT
Overcast
Overcast
 Wind from calm
Wind: Calm
Temperature: 59°F , 15°C
Dew Point: 59°F , 15°C
Humidity: 100%
Barometer: 29.99 inHg , 1015.6 hPa
Clouds: Overcast
Visibility: 7 miles , 11 km
Cloud details: Overcast 1500 ft
2017/08/23 16:55 KNFG 231655Z 00000KT 7SM OVC015 15/15 A2999 RMK AO2 SLP153 T01500144 $
KOKB - Oceanside, California, USA
Distance from station: WSW 6mi, 10km
Updated: Wed, 23-Aug-2017 9:52am PDT
Overcast
Overcast
 Wind from calm
Wind: Calm
Temperature: 72°F , 22°C
Dew Point: 64°F , 18°C
Humidity: 78%
Barometer: 29.98 inHg , 1015.2 hPa
Clouds: Overcast
Visibility: 8 miles , 13 km
Cloud details: Overcast 1200 ft
2017/08/23 16:52 KOKB 231652Z AUTO 00000KT 8SM OVC012 22/18 A2998 RMK AO2 SLP151 T02170183
 
KCRQ - Carlsbad, California, USA
Distance from station: SSW 8mi, 13km
Updated: Wed, 23-Aug-2017 9:53am PDT
Light rain, Mist, Overcast
Light rain, Mist, Overcast
 Wind from calm
Wind: Calm
Temperature: 68°F , 20°C
Dew Point: 66°F , 19°C
Humidity: 94%
Barometer: 29.98 inHg , 1015.2 hPa
Summary: Light rain, Mist
Clouds: Overcast
Visibility: 4 miles , 6 km
Cloud details: Overcast 800 ft
2017/08/23 16:53 KCRQ 231653Z AUTO 00000KT 4SM -RA BR OVC008 20/19 A2998 RMK AO2 RAB53 CIG 004V008 SLP150 P0000 T02000189
KNXF - Oceanside/Red-B, California, USA
Distance from station: WNW 12mi, 19km
Updated: Wed, 23-Aug-2017 9:56am PDT
Overcast
Overcast
 
Temperature: 70°F , 21°C
Dew Point: 64°F , 18°C
Humidity: 83%
Barometer: 29.99 inHg , 1015.6 hPa
Clouds: Overcast
Visibility: 8 miles , 13 km
Cloud details: Overcast 1300 ft
2017/08/23 16:56 KNXF 231656Z AUTO 8SM OVC013 21/18 A2999 RMK AO2 SLP240 T02060178 $
 
KSNA - Costa Mesa, California, USA
Distance from station: NW 46mi, 74km
Updated: Wed, 23-Aug-2017 9:53am PDT
Overcast
Overcast
 Wind from SSW
Wind: SSW 7 mph , 11 km/h
Temperature: 70°F , 21°C
Dew Point: 63°F , 17°C
Humidity: 78%
Barometer: 29.99 inHg , 1015.6 hPa
Clouds: Overcast
Visibility: 10 miles , 16 km
Cloud details: Overcast 1800 ft
2017/08/23 16:53 KSNA 231653Z 21006KT 10SM OVC018 21/17 A2999 RMK AO2 SLP153 T02110172
KCDC - Cedar City, Utah, USA
Distance from station: S 5mi, 8km
Updated: Wed, 23-Aug-2017 9:53am PDT
Clear
Clear
 Wind from varies
Wind: varies 3 mph , 6 km/h
Temperature: 79°F , 26°C
Dew Point: 43°F , 6°C
Humidity: 28%
Barometer: 30.25 inHg , 1024.4 hPa
Clouds: Clear
Visibility: 10 miles , 16 km
2017/08/23 16:53 KCDC 231653Z AUTO VRB03KT 10SM CLR 26/06 A3025 RMK AO2 SLP166 T02560061